createdAt,value
2022-09-10T00:01:36.775Z,100531.22
2022-09-10T00:04:11.342Z,100524.97
2022-09-10T00:06:38.824Z,100529.50
2022-09-10T00:09:07.010Z,100525.78
2022-09-10T00:11:35.242Z,100519.69
2022-09-10T00:14:05.045Z,100527.47
2022-09-10T00:16:32.647Z,100529.19
2022-09-10T00:19:01.283Z,100527.75
2022-09-10T00:21:30.025Z,100534.19
2022-09-10T00:23:57.947Z,100529.31
2022-09-10T00:26:27.373Z,100517.41
2022-09-10T00:28:59.452Z,100524.47
2022-09-10T00:31:27.041Z,100516.34
2022-09-10T00:33:54.810Z,100522.13
2022-09-10T00:36:33.316Z,100525.41
2022-09-10T00:39:06.285Z,100520.50
2022-09-10T00:41:37.697Z,100525.75
2022-09-10T00:44:39.481Z,100519.13
2022-09-10T00:47:33.191Z,100521.94
2022-09-10T00:50:34.472Z,100518.41
2022-09-10T00:53:07.061Z,100525.69
2022-09-10T00:55:38.340Z,100517.84
2022-09-10T00:58:10.055Z,100522.91
2022-09-10T01:00:37.905Z,100505.22
2022-09-10T01:03:08.881Z,100506.31
2022-09-10T01:05:36.749Z,100511.56
2022-09-10T01:08:04.718Z,100506.78
2022-09-10T01:10:48.048Z,100513.28
2022-09-10T01:13:57.405Z,100514.03
2022-09-10T01:17:55.620Z,100507.47
2022-09-10T01:21:04.495Z,100503.09
2022-09-10T01:24:33.950Z,100504.91
2022-09-10T01:27:54.252Z,100504.97
2022-09-10T01:30:35.859Z,100505.28
2022-09-10T01:33:23.795Z,100512.28
2022-09-10T01:35:57.673Z,100510.91
2022-09-10T01:38:32.453Z,100511.44
2022-09-10T01:40:59.762Z,100518.72
2022-09-10T01:43:27.310Z,100517.66
2022-09-10T01:46:41.742Z,100515.41
2022-09-10T01:49:14.679Z,100516.09
2022-09-10T01:52:35.581Z,100517.44
2022-09-10T01:55:30.535Z,100512.31
2022-09-10T01:58:33.525Z,100518.25
2022-09-10T02:02:01.259Z,100511.31
2022-09-10T02:04:28.719Z,100511.91
2022-09-10T02:06:57.351Z,100509.09
2022-09-10T02:09:25.506Z,100512.03
2022-09-10T02:11:55.072Z,100510.63
2022-09-10T02:14:22.897Z,100510.94
2022-09-10T02:16:58.965Z,100512.88
2022-09-10T02:19:27.529Z,100517.44
2022-09-10T02:21:57.251Z,100508.78
2022-09-10T02:24:24.289Z,100520.28
2022-09-10T02:26:51.492Z,100524.56
2022-09-10T02:29:19.330Z,100523.44
2022-09-10T02:31:47.373Z,100521.66
2022-09-10T02:34:15.990Z,100521.44
2022-09-10T02:36:43.437Z,100527.41
2022-09-10T02:39:10.495Z,100526.84
2022-09-10T02:41:39.560Z,100520.31
2022-09-10T02:44:06.623Z,100524.50
2022-09-10T02:46:33.675Z,100534.28
2022-09-10T02:49:00.682Z,100534.56
2022-09-10T02:51:27.640Z,100527.13
2022-09-10T02:53:55.849Z,100532.06
2022-09-10T02:56:23.740Z,100524.72
2022-09-10T02:58:51.251Z,100528.25
2022-09-10T03:01:22.370Z,100529.00
2022-09-10T03:03:52.325Z,100533.41
2022-09-10T03:06:21.457Z,100531.78
2022-09-10T03:08:49.747Z,100529.28
2022-09-10T03:11:17.446Z,100525.03
2022-09-10T03:13:45.969Z,100531.81
2022-09-10T03:16:14.232Z,100523.66
2022-09-10T03:18:45.376Z,100521.53
2022-09-10T03:21:22.512Z,100528.19
2022-09-10T03:23:52.944Z,100517.50
2022-09-10T03:26:25.149Z,100517.69
2022-09-10T03:28:52.619Z,100534.03
2022-09-10T03:31:19.778Z,100524.91
2022-09-10T03:33:46.760Z,100528.91
2022-09-10T03:36:13.847Z,100522.00
2022-09-10T03:38:41.817Z,100526.69
2022-09-10T03:41:09.867Z,100525.94
2022-09-10T03:43:37.510Z,100525.72
2022-09-10T03:46:05.428Z,100526.44
2022-09-10T03:48:32.497Z,100526.44
2022-09-10T03:50:59.509Z,100523.09
2022-09-10T03:53:26.523Z,100525.44
2022-09-10T03:55:55.622Z,100518.13
2022-09-10T03:58:22.683Z,100518.66
2022-09-10T04:00:49.740Z,100512.44
2022-09-10T04:03:16.755Z,100514.38
2022-09-10T04:05:44.099Z,100514.66
2022-09-10T04:08:13.093Z,100520.75
2022-09-10T04:10:42.131Z,100515.22
2022-09-10T04:13:09.389Z,100516.06
2022-09-10T04:15:37.444Z,100525.47
2022-09-10T04:18:06.369Z,100525.16
2022-09-10T04:20:34.403Z,100518.00
2022-09-10T04:23:01.526Z,100524.22
2022-09-10T04:25:28.519Z,100519.63
2022-09-10T04:27:55.494Z,100523.31
2022-09-10T04:30:23.241Z,100529.09
2022-09-10T04:32:50.331Z,100532.78
2022-09-10T04:35:17.583Z,100534.88
2022-09-10T04:37:44.521Z,100534.19
2022-09-10T04:40:11.861Z,100536.44
2022-09-10T04:42:38.915Z,100529.78
2022-09-10T04:45:07.256Z,100530.09
2022-09-10T04:47:34.644Z,100528.97
2022-09-10T04:50:01.986Z,100528.00
2022-09-10T04:52:29.363Z,100527.59
2022-09-10T04:54:56.436Z,100524.41
2022-09-10T04:57:24.238Z,100519.16
2022-09-10T04:59:52.688Z,100520.59
2022-09-10T05:02:20.519Z,100520.72
2022-09-10T05:04:47.553Z,100519.44
2022-09-10T05:07:14.514Z,100523.50
2022-09-10T05:09:41.607Z,100525.72
2022-09-10T05:12:08.633Z,100524.88
2022-09-10T05:14:35.616Z,100530.97
2022-09-10T05:17:03.231Z,100534.84
2022-09-10T05:19:30.156Z,100533.06
2022-09-10T05:21:57.146Z,100529.03
2022-09-10T05:24:24.162Z,100534.03
2022-09-10T05:26:51.083Z,100535.41
2022-09-10T05:29:18.322Z,100532.09
2022-09-10T05:31:45.501Z,100537.91
2022-09-10T05:34:12.510Z,100532.75
2022-09-10T05:36:40.727Z,100541.22
2022-09-10T05:39:07.738Z,100537.63
2022-09-10T05:41:34.699Z,100534.41
2022-09-10T05:44:01.776Z,100533.31
2022-09-10T05:46:30.861Z,100533.56
2022-09-10T05:48:57.973Z,100537.56
2022-09-10T05:51:28.675Z,100544.19
2022-09-10T05:53:56.444Z,100545.50
2022-09-10T05:56:25.685Z,100549.28
2022-09-10T05:58:52.748Z,100552.75
2022-09-10T06:01:20.056Z,100550.25
2022-09-10T06:03:47.518Z,100542.78
2022-09-10T06:06:14.583Z,100545.69
2022-09-10T06:08:41.568Z,100549.31
2022-09-10T06:11:11.444Z,100543.16
2022-09-10T06:13:42.176Z,100550.91
2022-09-10T06:16:09.484Z,100550.31
2022-09-10T06:18:37.115Z,100545.06
2022-09-10T06:21:18.118Z,100548.28
2022-09-10T06:23:46.305Z,100551.44
2022-09-10T06:26:18.502Z,100556.06
2022-09-10T06:28:46.441Z,100552.59
2022-09-10T06:31:19.957Z,100555.03
2022-09-10T06:33:48.936Z,100552.50
2022-09-10T06:36:16.221Z,100561.47
2022-09-10T06:38:45.050Z,100563.31
2022-09-10T06:41:14.216Z,100565.47
2022-09-10T06:43:42.318Z,100572.84
2022-09-10T06:46:50.756Z,100567.00
2022-09-10T06:49:04.265Z,100567.69
2022-09-10T06:51:32.743Z,100561.22
2022-09-10T06:54:01.756Z,100567.75
2022-09-10T06:56:29.867Z,100562.41
2022-09-10T06:59:02.455Z,100565.34
2022-09-10T07:01:29.836Z,100570.25
2022-09-10T07:04:00.155Z,100574.94
2022-09-10T07:06:34.698Z,100570.13
2022-09-10T07:09:01.990Z,100569.06
2022-09-10T07:11:30.424Z,100578.38
2022-09-10T07:13:58.271Z,100568.16
2022-09-10T07:16:27.863Z,100568.47
2022-09-10T07:18:59.514Z,100570.34
2022-09-10T07:21:28.751Z,100567.84
2022-09-10T07:23:58.914Z,100571.66
2022-09-10T07:26:26.040Z,100579.44
2022-09-10T07:28:53.996Z,100574.19
2022-09-10T07:31:29.762Z,100570.72
2022-09-10T07:34:00.990Z,100577.03
2022-09-10T07:36:29.293Z,100566.78
2022-09-10T07:39:04.498Z,100568.28
2022-09-10T07:41:34.723Z,100572.44
2022-09-10T07:44:01.969Z,100571.63
2022-09-10T07:46:29.172Z,100576.88
2022-09-10T07:49:00.025Z,100570.28
2022-09-10T07:51:30.317Z,100571.25
2022-09-10T07:53:59.293Z,100571.94
2022-09-10T07:56:27.022Z,100571.25
2022-09-10T07:58:56.912Z,100562.56
2022-09-10T08:01:23.959Z,100567.22
2022-09-10T08:03:51.395Z,100568.53
2022-09-10T08:06:19.437Z,100570.75
2022-09-10T08:08:46.356Z,100574.88
2022-09-10T08:11:21.279Z,100572.72
2022-09-10T08:13:51.752Z,100570.47
2022-09-10T08:16:24.522Z,100568.44
2022-09-10T08:18:51.484Z,100570.56
2022-09-10T08:21:22.788Z,100573.13
2022-09-10T08:23:53.965Z,100568.44
2022-09-10T08:26:23.655Z,100570.91
2022-09-10T08:28:52.850Z,100568.63
2022-09-10T08:31:20.131Z,100577.28
2022-09-10T08:33:53.975Z,100585.56
2022-09-10T08:36:25.577Z,100586.41
2022-09-10T08:38:59.787Z,100580.81
2022-09-10T08:41:52.581Z,100587.06
2022-09-10T08:44:58.556Z,100581.91
2022-09-10T08:47:58.931Z,100585.28
2022-09-10T08:50:50.078Z,100581.63
2022-09-10T08:54:02.946Z,100586.66
2022-09-10T08:56:31.211Z,100591.53
2022-09-10T08:59:17.362Z,100589.94
2022-09-10T09:01:55.428Z,100587.00
2022-09-10T09:04:54.533Z,100584.06
2022-09-10T09:07:22.650Z,100584.69
2022-09-10T09:09:51.811Z,100588.19
2022-09-10T09:12:47.826Z,100592.06
2022-09-10T09:15:26.183Z,100595.31
2022-09-10T09:18:55.408Z,100579.31
2022-09-10T09:22:04.681Z,100579.53
2022-09-10T09:25:09.856Z,100581.56
2022-09-10T09:27:41.633Z,100589.31
2022-09-10T09:30:37.586Z,100588.63
2022-09-10T09:33:16.758Z,100584.63
2022-09-10T09:36:02.054Z,100577.91
2022-09-10T09:38:43.890Z,100581.09
2022-09-10T09:41:55.628Z,100581.44
2022-09-10T09:45:02.157Z,100579.50
2022-09-10T09:47:29.122Z,100573.06
2022-09-10T09:49:56.230Z,100569.09
2022-09-10T09:52:27.471Z,100573.06
2022-09-10T09:55:14.674Z,100566.63
2022-09-10T09:57:42.873Z,100569.94
2022-09-10T10:00:37.811Z,100575.72
2022-09-10T10:03:26.540Z,100573.94
2022-09-10T10:06:12.242Z,100572.72
2022-09-10T10:08:45.129Z,100560.22
2022-09-10T10:11:20.880Z,100564.44
2022-09-10T10:13:51.618Z,100560.75
2022-09-10T10:16:33.670Z,100563.34
2022-09-10T10:19:00.648Z,100550.28
2022-09-10T10:21:33.403Z,100556.38
2022-09-10T10:24:01.111Z,100559.38
2022-09-10T10:26:35.749Z,100554.09
2022-09-10T10:29:18.381Z,100559.19
2022-09-10T10:31:49.360Z,100552.31
2022-09-10T10:34:59.238Z,100548.25
2022-09-10T10:38:13.947Z,100553.22
2022-09-10T10:41:22.209Z,100554.56
2022-09-10T10:44:10.741Z,100552.94
2022-09-10T10:46:59.955Z,100555.34
2022-09-10T10:50:06.274Z,100555.06
2022-09-10T10:53:34.381Z,100546.25
2022-09-10T10:56:37.276Z,100552.88
2022-09-10T10:59:55.523Z,100551.50
2022-09-10T11:03:00.498Z,100544.66
2022-09-10T11:05:52.903Z,100551.25
2022-09-10T11:08:59.115Z,100553.97
2022-09-10T11:11:46.045Z,100544.91
2022-09-10T11:14:44.164Z,100548.34
2022-09-10T11:17:47.159Z,100551.91
2022-09-10T11:20:29.616Z,100550.28
2022-09-10T11:23:36.029Z,100551.16
2022-09-10T11:26:45.459Z,100548.72
2022-09-10T11:29:44.871Z,100544.56
2022-09-10T11:32:35.066Z,100543.69
2022-09-10T11:35:39.766Z,100533.31
2022-09-10T11:38:48.214Z,100540.19
2022-09-10T11:41:23.831Z,100535.94
2022-09-10T11:44:36.488Z,100539.34
2022-09-10T11:47:32.233Z,100540.09
2022-09-10T11:50:37.453Z,100544.59
2022-09-10T11:53:07.582Z,100534.00
2022-09-10T11:56:12.584Z,100540.34
2022-09-10T11:59:05.943Z,100529.03
2022-09-10T12:02:57.394Z,100532.06
2022-09-10T12:05:50.414Z,100527.41
2022-09-10T12:08:41.884Z,100521.63
2022-09-10T12:12:07.667Z,100523.78
2022-09-10T12:14:38.391Z,100521.19
2022-09-10T12:17:17.643Z,100513.88
2022-09-10T12:19:54.541Z,100517.34
2022-09-10T12:22:40.440Z,100510.56
2022-09-10T12:25:18.457Z,100517.56
2022-09-10T12:28:25.117Z,100514.09
2022-09-10T12:30:52.494Z,100504.47
2022-09-10T12:33:24.601Z,100506.91
2022-09-10T12:35:55.693Z,100504.28
2022-09-10T12:38:55.194Z,100506.59
2022-09-10T12:41:24.757Z,100510.25
2022-09-10T12:43:58.624Z,100512.72
2022-09-10T12:46:27.161Z,100511.16
2022-09-10T12:48:57.734Z,100505.75
2022-09-10T12:51:48.007Z,100505.91
2022-09-10T12:54:51.630Z,100503.09
2022-09-10T12:57:50.867Z,100502.06
2022-09-10T13:00:22.035Z,100489.69
2022-09-10T13:03:27.947Z,100485.69
2022-09-10T13:06:04.218Z,100481.09
2022-09-10T13:08:43.430Z,100475.28
2022-09-10T13:11:25.944Z,100478.09
2022-09-10T13:14:00.142Z,100469.41
2022-09-10T13:16:27.137Z,100470.03
2022-09-10T13:19:15.344Z,100468.09
2022-09-10T13:21:44.900Z,100486.53
2022-09-10T13:24:57.882Z,100475.25
2022-09-10T13:27:40.803Z,100480.38
2022-09-10T13:30:23.011Z,100478.28
2022-09-10T13:33:00.868Z,100475.09
2022-09-10T13:36:01.497Z,100472.38
2022-09-10T13:39:14.468Z,100463.44
2022-09-10T13:41:53.200Z,100466.50
2022-09-10T13:44:53.589Z,100465.78
2022-09-10T13:47:40.821Z,100464.94
2022-09-10T13:50:21.770Z,100470.91
2022-09-10T13:52:55.013Z,100471.56
2022-09-10T13:55:34.047Z,100457.84
2022-09-10T13:58:18.061Z,100463.53
2022-09-10T14:01:03.877Z,100458.25
2022-09-10T14:03:40.407Z,100471.03
2022-09-10T14:06:15.398Z,100468.81
2022-09-10T14:09:02.079Z,100468.97
2022-09-10T14:11:35.115Z,100467.25
2022-09-10T14:14:30.518Z,100466.75
2022-09-10T14:17:15.419Z,100473.75
2022-09-10T14:20:16.780Z,100469.81
2022-09-10T14:22:44.314Z,100465.78
2022-09-10T14:25:39.182Z,100470.28
2022-09-10T14:28:27.957Z,100467.59
2022-09-10T14:31:26.606Z,100471.06
2022-09-10T14:33:55.833Z,100471.84
2022-09-10T14:36:28.781Z,100464.41
2022-09-10T14:39:22.476Z,100463.56
2022-09-10T14:42:07.845Z,100460.28
2022-09-10T14:44:41.860Z,100464.16
2022-09-10T14:47:08.607Z,100456.34
2022-09-10T14:49:39.474Z,100459.91
2022-09-10T14:52:07.788Z,100454.78
2022-09-10T14:54:35.334Z,100464.75
2022-09-10T14:57:13.837Z,100470.47
2022-09-10T14:59:44.347Z,100473.28
2022-09-10T15:02:27.113Z,100476.97
2022-09-10T15:04:54.760Z,100482.19
2022-09-10T15:07:23.870Z,100488.03
2022-09-10T15:09:53.705Z,100489.47
2022-09-10T15:12:31.942Z,100486.34
2022-09-10T15:14:59.180Z,100488.56
2022-09-10T15:17:27.505Z,100496.25
2022-09-10T15:19:55.215Z,100495.22
2022-09-10T15:22:31.479Z,100487.69
2022-09-10T15:25:09.642Z,100487.50
2022-09-10T15:27:37.725Z,100481.19
2022-09-10T15:30:06.324Z,100476.63
2022-09-10T15:32:33.367Z,100478.91
2022-09-10T15:35:01.058Z,100475.16
2022-09-10T15:37:28.001Z,100476.97
2022-09-10T15:39:56.529Z,100481.63
2022-09-10T15:42:23.601Z,100483.75
2022-09-10T15:44:50.578Z,100474.06
2022-09-10T15:47:17.581Z,100476.63
2022-09-10T15:49:44.539Z,100468.03
2022-09-10T15:52:11.575Z,100477.69
2022-09-10T15:54:38.862Z,100468.88
2022-09-10T15:57:06.764Z,100474.06
2022-09-10T15:59:33.735Z,100479.50
2022-09-10T16:02:00.843Z,100474.59
2022-09-10T16:04:31.579Z,100478.50
2022-09-10T16:07:00.807Z,100482.66
2022-09-10T16:09:27.784Z,100484.66
2022-09-10T16:11:54.918Z,100480.19
2022-09-10T16:14:23.089Z,100486.81
2022-09-10T16:16:51.015Z,100491.03
2022-09-10T16:19:17.995Z,100492.88
2022-09-10T16:21:48.249Z,100490.31
2022-09-10T16:24:15.193Z,100497.59
2022-09-10T16:26:45.078Z,100488.22
2022-09-10T16:29:18.134Z,100494.38
2022-09-10T16:31:45.971Z,100503.84
2022-09-10T16:34:18.282Z,100502.25
2022-09-10T16:36:51.522Z,100502.56
2022-09-10T16:39:19.673Z,100504.78
2022-09-10T16:41:49.709Z,100519.59
2022-09-10T16:44:18.502Z,100527.75
2022-09-10T16:46:46.994Z,100532.47
2022-09-10T16:49:17.191Z,100530.63
2022-09-10T16:51:47.274Z,100532.78
2022-09-10T16:54:15.859Z,100521.63
2022-09-10T16:56:48.275Z,100525.56
2022-09-10T16:59:22.379Z,100531.28
2022-09-10T17:01:51.907Z,100530.72
2022-09-10T17:04:28.250Z,100530.50
2022-09-10T17:06:57.616Z,100534.19
2022-09-10T17:09:25.079Z,100537.19
2022-09-10T17:11:55.345Z,100541.97
2022-09-10T17:14:22.675Z,100543.38
2022-09-10T17:16:50.285Z,100543.44
2022-09-10T17:19:23.272Z,100542.13
2022-09-10T17:21:53.309Z,100545.41
2022-09-10T17:24:26.373Z,100543.16
2022-09-10T17:26:55.272Z,100549.56
2022-09-10T17:29:25.342Z,100549.56
2022-09-10T17:31:52.871Z,100558.44
2022-09-10T17:34:21.370Z,100560.31
2022-09-10T17:36:49.321Z,100567.88
2022-09-10T17:39:17.663Z,100568.81
2022-09-10T17:41:44.820Z,100568.63
2022-09-10T17:44:13.457Z,100568.34
2022-09-10T17:46:42.550Z,100572.78
2022-09-10T17:49:14.013Z,100562.56
2022-09-10T17:51:42.114Z,100566.91
2022-09-10T17:54:10.378Z,100569.59
2022-09-10T17:56:41.841Z,100569.09
2022-09-10T17:59:13.287Z,100568.56
2022-09-10T18:01:40.885Z,100576.50
2022-09-10T18:04:12.549Z,100573.56
2022-09-10T18:06:40.784Z,100578.56
2022-09-10T18:09:08.633Z,100584.16
2022-09-10T18:11:40.416Z,100577.25
2022-09-10T18:14:08.321Z,100587.31
2022-09-10T18:16:37.082Z,100587.78
2022-09-10T18:19:16.039Z,100591.28
2022-09-10T18:21:46.305Z,100589.78
2022-09-10T18:24:18.997Z,100595.06
2022-09-10T18:26:48.591Z,100598.38
2022-09-10T18:29:28.095Z,100596.59
2022-09-10T18:32:00.582Z,100599.97
2022-09-10T18:34:30.917Z,100606.06
2022-09-10T18:37:01.780Z,100605.59
2022-09-10T18:39:33.884Z,100602.94
2022-09-10T18:42:04.905Z,100599.94
2022-09-10T18:44:36.335Z,100600.94
2022-09-10T18:47:17.856Z,100598.59
2022-09-10T18:49:54.080Z,100609.16
2022-09-10T18:52:21.070Z,100605.53
2022-09-10T18:54:48.392Z,100597.91
2022-09-10T18:57:15.431Z,100591.50
2022-09-10T18:59:42.384Z,100587.16
2022-09-10T19:02:12.936Z,100590.91
2022-09-10T19:04:54.654Z,100589.94
2022-09-10T19:07:27.315Z,100593.66
2022-09-10T19:09:54.249Z,100590.09
2022-09-10T19:12:21.219Z,100583.16
2022-09-10T19:14:48.176Z,100582.84
2022-09-10T19:17:15.757Z,100581.84
2022-09-10T19:19:42.693Z,100581.84
2022-09-10T19:22:10.736Z,100586.41
2022-09-10T19:24:54.505Z,100589.13
2022-09-10T19:27:22.399Z,100590.44
2022-09-10T19:29:50.130Z,100579.81
2022-09-10T19:32:19.508Z,100584.59
2022-09-10T19:34:50.207Z,100585.78
2022-09-10T19:37:17.300Z,100582.94
2022-09-10T19:39:44.586Z,100574.69
2022-09-10T19:42:12.485Z,100572.84
2022-09-10T19:44:39.455Z,100577.44
2022-09-10T19:47:06.420Z,100580.25
2022-09-10T19:49:34.193Z,100582.91
2022-09-10T19:52:01.540Z,100583.09
2022-09-10T19:54:29.778Z,100583.94
2022-09-10T19:56:56.763Z,100580.25
2022-09-10T19:59:24.127Z,100579.44
2022-09-10T20:01:51.191Z,100581.69
2022-09-10T20:04:18.286Z,100581.94
2022-09-10T20:06:50.227Z,100587.59
2022-09-10T20:09:17.384Z,100585.47
2022-09-10T20:11:45.003Z,100579.78
2022-09-10T20:14:14.445Z,100584.34
2022-09-10T20:16:45.023Z,100586.59
2022-09-10T20:19:22.027Z,100582.75
2022-09-10T20:21:49.318Z,100583.09
2022-09-10T20:24:17.008Z,100580.66
2022-09-10T20:26:46.216Z,100587.84
2022-09-10T20:29:17.922Z,100589.16
2022-09-10T20:31:46.952Z,100588.91
2022-09-10T20:34:19.479Z,100594.13
2022-09-10T20:36:50.243Z,100595.09
2022-09-10T20:39:21.230Z,100593.81
2022-09-10T20:41:48.594Z,100597.88
2022-09-10T20:44:17.175Z,100591.22
2022-09-10T20:46:44.923Z,100592.00
2022-09-10T20:49:13.675Z,100589.50
2022-09-10T20:51:41.142Z,100589.72
2022-09-10T20:54:15.766Z,100596.44
2022-09-10T20:56:43.892Z,100594.94
2022-09-10T20:59:18.178Z,100591.88
2022-09-10T21:01:46.939Z,100583.44
2022-09-10T21:04:14.817Z,100593.63
2022-09-10T21:06:41.839Z,100585.97
2022-09-10T21:09:08.898Z,100588.44
2022-09-10T21:11:37.359Z,100591.47
2022-09-10T21:14:07.394Z,100588.03
2022-09-10T21:16:36.609Z,100604.31
2022-09-10T21:19:09.252Z,100602.66
2022-09-10T21:21:39.385Z,100609.09
2022-09-10T21:24:22.360Z,100608.44
2022-09-10T21:26:50.422Z,100608.69
2022-09-10T21:29:20.913Z,100614.63
2022-09-10T21:31:50.601Z,100613.78
2022-09-10T21:34:17.723Z,100621.75
2022-09-10T21:36:45.160Z,100611.44
2022-09-10T21:39:16.447Z,100621.81
2022-09-10T21:41:50.014Z,100619.03
2022-09-10T21:44:23.062Z,100619.78
2022-09-10T21:46:51.461Z,100620.38
2022-09-10T21:49:20.261Z,100619.91
2022-09-10T21:51:47.650Z,100618.25
2022-09-10T21:54:20.476Z,100617.38
2022-09-10T21:56:50.310Z,100625.50
2022-09-10T21:59:17.766Z,100616.09
2022-09-10T22:01:46.493Z,100621.34
2022-09-10T22:04:20.056Z,100621.13
2022-09-10T22:06:49.418Z,100631.97
2022-09-10T22:09:16.877Z,100627.97
2022-09-10T22:11:51.815Z,100621.63
2022-09-10T22:14:23.318Z,100620.09
2022-09-10T22:16:51.955Z,100621.38
2022-09-10T22:19:24.089Z,100625.19
2022-09-10T22:21:53.988Z,100625.94
2022-09-10T22:24:21.005Z,100615.25
2022-09-10T22:26:47.981Z,100618.13
2022-09-10T22:29:20.254Z,100613.28
2022-09-10T22:31:47.931Z,100615.75
2022-09-10T22:34:17.567Z,100615.34
2022-09-10T22:36:46.966Z,100615.84
2022-09-10T22:39:20.850Z,100622.28
2022-09-10T22:41:50.006Z,100619.91
2022-09-10T22:44:18.002Z,100615.59
2022-09-10T22:46:45.077Z,100623.38
2022-09-10T22:49:12.361Z,100619.84
2022-09-10T22:51:43.352Z,100617.28
2022-09-10T22:54:10.736Z,100627.31
2022-09-10T22:56:39.581Z,100628.31
2022-09-10T22:59:11.079Z,100628.81
2022-09-10T23:01:38.988Z,100635.00
2022-09-10T23:04:09.342Z,100641.25
2022-09-10T23:06:38.593Z,100643.13
2022-09-10T23:09:14.817Z,100642.91
2022-09-10T23:11:44.387Z,100651.78
2022-09-10T23:14:19.249Z,100657.00
2022-09-10T23:16:50.098Z,100650.22
2022-09-10T23:19:21.907Z,100655.63
2022-09-10T23:21:53.827Z,100659.22
2022-09-10T23:24:26.478Z,100656.75
2022-09-10T23:26:54.199Z,100654.50
2022-09-10T23:29:22.997Z,100657.88
2022-09-10T23:31:53.223Z,100651.94
2022-09-10T23:34:21.758Z,100647.78
2022-09-10T23:36:49.462Z,100655.75
2022-09-10T23:39:22.192Z,100657.28
2022-09-10T23:41:56.871Z,100651.88
2022-09-10T23:44:24.881Z,100657.41
2022-09-10T23:46:52.182Z,100652.00
2022-09-10T23:49:19.332Z,100656.88
2022-09-10T23:51:46.335Z,100652.97
2022-09-10T23:54:13.460Z,100655.75
2022-09-10T23:56:41.072Z,100662.06
2022-09-10T23:59:09.093Z,100653.41
